createdAt,value
2022-11-24T00:02:12.722Z,52441.86
2022-11-24T00:04:44.517Z,52435.44
2022-11-24T00:07:14.648Z,52427.39
2022-11-24T00:09:46.513Z,52418.55
2022-11-24T00:12:18.179Z,52415.74
2022-11-24T00:14:48.762Z,52438.24
2022-11-24T00:17:20.388Z,52421.77
2022-11-24T00:19:50.491Z,52425.38
2022-11-24T00:22:22.192Z,52422.98
2022-11-24T00:24:53.890Z,52437.84
2022-11-24T00:27:25.475Z,52407.30
2022-11-24T00:30:00.368Z,52431.41
2022-11-24T00:32:32.489Z,52444.27
2022-11-24T00:35:03.979Z,52420.16
2022-11-24T00:37:35.659Z,52425.79
2022-11-24T00:40:09.334Z,52416.54
2022-11-24T00:42:40.858Z,52425.79
2022-11-24T00:45:14.107Z,52417.35
2022-11-24T00:47:46.469Z,52433.02
2022-11-24T00:50:18.342Z,52420.96
2022-11-24T00:52:49.871Z,52416.95
2022-11-24T00:55:22.023Z,52430.21
2022-11-24T00:57:53.460Z,52409.71
2022-11-24T01:00:25.113Z,52436.24
2022-11-24T01:02:56.856Z,52435.03
2022-11-24T01:05:28.521Z,52431.81
2022-11-24T01:08:00.126Z,52433.02
2022-11-24T01:10:30.093Z,52431.41
2022-11-24T01:13:01.789Z,52425.38
2022-11-24T01:15:31.726Z,52433.43
2022-11-24T01:18:03.278Z,52423.38
2022-11-24T01:20:34.994Z,52414.13
2022-11-24T01:23:06.532Z,52433.43
2022-11-24T01:25:38.139Z,52421.37
2022-11-24T01:28:09.820Z,52420.16
2022-11-24T01:30:39.788Z,52418.55
2022-11-24T01:33:11.344Z,52424.18
2022-11-24T01:35:42.965Z,52419.76
2022-11-24T01:38:14.553Z,52422.57
2022-11-24T01:40:46.540Z,52424.58
2022-11-24T01:43:18.670Z,52419.36
2022-11-24T01:45:51.416Z,52413.33
2022-11-24T01:48:27.295Z,52414.94
2022-11-24T01:51:04.325Z,52426.99
2022-11-24T01:53:35.939Z,52414.53
2022-11-24T02:10:43.254Z,52402.08
2022-11-24T02:13:15.215Z,52410.11
2022-11-24T02:15:45.200Z,52395.65
2022-11-24T02:18:16.733Z,52390.42
2022-11-24T02:20:48.429Z,52418.55
2022-11-24T02:23:21.744Z,52405.29
2022-11-24T02:25:57.734Z,52406.90
2022-11-24T02:28:31.035Z,52398.46
2022-11-24T02:31:02.713Z,52403.28
2022-11-24T02:33:34.707Z,52390.82
2022-11-24T02:36:06.965Z,52411.72
2022-11-24T02:38:39.102Z,52402.07
2022-11-24T02:41:12.699Z,52390.82
2022-11-24T02:56:06.598Z,52369.12
2022-11-24T02:58:38.723Z,52386.00
2022-11-24T03:01:10.369Z,52396.45
2022-11-24T03:03:40.371Z,52380.37
2022-11-24T03:06:12.075Z,52388.82
2022-11-24T03:08:42.033Z,52394.84
2022-11-24T03:11:13.672Z,52398.46
2022-11-24T03:13:43.804Z,52388.01
2022-11-24T03:16:15.415Z,52399.66
2022-11-24T03:18:45.307Z,52389.62
2022-11-24T03:21:16.895Z,52394.84
2022-11-24T03:23:48.421Z,52405.29
2022-11-24T03:26:21.103Z,52399.26
2022-11-24T03:28:53.105Z,52383.99
2022-11-24T03:31:24.769Z,52392.03
2022-11-24T03:33:56.794Z,52395.65
2022-11-24T03:36:28.322Z,52394.84
2022-11-24T03:38:59.986Z,52398.86
2022-11-24T03:41:29.858Z,52393.63
2022-11-24T03:44:02.201Z,52410.52
2022-11-24T03:46:32.133Z,52412.93
2022-11-24T03:49:04.596Z,52394.45
2022-11-24T03:51:36.437Z,52388.01
2022-11-24T03:54:08.669Z,52402.48
2022-11-24T03:56:40.532Z,52390.42
2022-11-24T03:59:12.545Z,52401.27
2022-11-24T04:01:42.690Z,52408.10
2022-11-24T04:04:15.386Z,52419.36
2022-11-24T04:06:47.057Z,52406.09
2022-11-24T04:09:18.869Z,52400.47
2022-11-24T04:12:06.423Z,52384.39
2022-11-24T04:14:38.388Z,52396.45
2022-11-24T04:17:10.120Z,52390.02
2022-11-24T04:19:42.233Z,52396.05
2022-11-24T04:22:12.286Z,52396.05
2022-11-24T04:24:44.345Z,52392.03
2022-11-24T04:27:14.425Z,52395.65
2022-11-24T04:29:46.151Z,52399.66
2022-11-24T04:32:17.905Z,52397.25
2022-11-24T04:34:49.670Z,52407.71
2022-11-24T04:37:21.551Z,52394.84
2022-11-24T04:39:55.555Z,52391.63
2022-11-24T04:42:27.162Z,52386.80
2022-11-24T04:44:59.158Z,52390.02
2022-11-24T04:47:28.982Z,52382.38
2022-11-24T04:50:00.699Z,52389.62
2022-11-24T04:52:30.669Z,52392.03
2022-11-24T04:55:02.173Z,52390.42
2022-11-24T04:57:33.701Z,52399.26
2022-11-24T05:00:05.550Z,52382.79
2022-11-24T05:02:37.053Z,52379.17
2022-11-24T05:05:10.189Z,52366.71
2022-11-24T05:07:41.745Z,52392.84
2022-11-24T05:10:29.384Z,52398.86
2022-11-24T05:13:00.983Z,52386.00
2022-11-24T05:15:32.816Z,52386.80
2022-11-24T05:18:03.472Z,52392.03
2022-11-24T05:20:35.332Z,52403.29
2022-11-24T05:23:07.965Z,52409.31
2022-11-24T05:25:40.525Z,52407.30
2022-11-24T05:28:15.920Z,52396.85
2022-11-24T05:30:47.528Z,52392.43
2022-11-24T05:33:20.557Z,52392.03
2022-11-24T05:35:52.260Z,52391.63
2022-11-24T05:38:24.018Z,52401.67
2022-11-24T05:40:53.889Z,52398.46
2022-11-24T05:43:25.502Z,52393.23
2022-11-24T05:45:59.678Z,52398.86
2022-11-24T05:48:31.215Z,52407.30
2022-11-24T05:51:07.866Z,52390.82
2022-11-24T05:53:41.013Z,52403.68
2022-11-24T05:56:11.158Z,52393.63
2022-11-24T05:58:42.672Z,52391.63
2022-11-24T06:01:14.196Z,52396.85
2022-11-24T06:03:45.601Z,52381.18
2022-11-24T06:06:17.263Z,52388.01
2022-11-24T06:08:48.658Z,52397.65
2022-11-24T06:11:20.391Z,52396.85
2022-11-24T06:13:51.902Z,52389.21
2022-11-24T06:16:23.600Z,52384.79
2022-11-24T06:18:55.086Z,52398.06
2022-11-24T06:21:26.562Z,52401.68
2022-11-24T06:23:57.980Z,52377.96
2022-11-24T06:26:29.457Z,52405.69
2022-11-24T06:29:00.819Z,52386.41
2022-11-24T06:31:32.331Z,52392.03
2022-11-24T06:34:03.725Z,52408.51
2022-11-24T06:36:35.165Z,52401.27
2022-11-24T06:39:05.089Z,52390.02
2022-11-24T06:41:38.319Z,52394.44
2022-11-24T06:44:10.303Z,52382.38
2022-11-24T06:46:42.034Z,52371.93
2022-11-24T06:49:13.491Z,52386.00
2022-11-24T06:51:45.323Z,52401.67
2022-11-24T06:54:18.864Z,52393.23
2022-11-24T06:56:50.452Z,52384.39
2022-11-24T06:59:22.565Z,52402.07
2022-11-24T07:01:54.584Z,52392.83
2022-11-24T07:04:24.544Z,52396.45
2022-11-24T07:06:56.062Z,52381.58
2022-11-24T07:09:28.200Z,52376.36
2022-11-24T07:12:00.633Z,52381.98
2022-11-24T07:14:33.636Z,52380.77
2022-11-24T07:17:05.621Z,52383.99
2022-11-24T07:19:37.233Z,52373.95
2022-11-24T07:22:09.270Z,52386.00
2022-11-24T07:24:40.875Z,52366.30
2022-11-24T07:27:12.562Z,52373.14
2022-11-24T07:29:44.063Z,52373.14
2022-11-24T07:32:14.282Z,52392.83
2022-11-24T07:34:45.601Z,52382.38
2022-11-24T07:37:17.190Z,52379.17
2022-11-24T07:39:48.604Z,52379.57
2022-11-24T07:42:18.961Z,52366.31
2022-11-24T07:44:50.438Z,52379.57
2022-11-24T07:47:20.580Z,52370.73
2022-11-24T07:49:52.081Z,52374.35
2022-11-24T07:52:26.844Z,52364.30
2022-11-24T07:54:58.582Z,52347.02
2022-11-24T07:57:30.328Z,52380.77
2022-11-24T08:00:01.637Z,52363.50
2022-11-24T08:02:36.090Z,52359.48
2022-11-24T08:05:08.993Z,52375.55
2022-11-24T08:07:40.716Z,52368.32
2022-11-24T08:10:11.283Z,52357.07
2022-11-24T08:12:43.863Z,52353.85
2022-11-24T08:15:15.849Z,52361.49
2022-11-24T08:18:03.578Z,52353.45
2022-11-24T08:20:34.898Z,52349.83
2022-11-24T08:23:06.335Z,52358.68
2022-11-24T08:25:37.673Z,52354.25
2022-11-24T08:28:09.179Z,52353.45
2022-11-24T08:30:40.502Z,52345.41
2022-11-24T08:33:13.103Z,52344.21
2022-11-24T08:35:44.489Z,52346.21
2022-11-24T08:38:17.635Z,52313.26
2022-11-24T08:40:48.991Z,52343.40
2022-11-24T08:43:20.339Z,52347.02
2022-11-24T08:45:51.750Z,52335.77
2022-11-24T08:48:24.269Z,52322.91
2022-11-24T08:50:56.174Z,52338.18
2022-11-24T08:53:30.332Z,52331.34
2022-11-24T08:56:03.808Z,52319.29
2022-11-24T08:58:35.328Z,52313.26
2022-11-24T09:01:06.939Z,52312.05
2022-11-24T09:03:42.331Z,52304.82
2022-11-24T09:06:28.283Z,52324.11
2022-11-24T09:09:01.738Z,52318.49
2022-11-24T09:11:36.333Z,52322.91
2022-11-24T09:14:08.097Z,52318.89
2022-11-24T09:16:38.144Z,52313.66
2022-11-24T09:19:09.597Z,52322.50
2022-11-24T09:21:41.224Z,52316.48
2022-11-24T09:24:11.481Z,52323.71
2022-11-24T09:26:47.271Z,52308.44
2022-11-24T09:29:19.441Z,52309.24
2022-11-24T09:31:50.797Z,52326.12
2022-11-24T09:34:22.512Z,52314.06
2022-11-24T09:36:53.969Z,52309.24
2022-11-24T09:39:25.926Z,52305.23
2022-11-24T09:42:09.142Z,52307.63
2022-11-24T09:45:19.959Z,52312.46
2022-11-24T09:48:04.806Z,52322.10
2022-11-24T09:50:37.186Z,52313.66
2022-11-24T09:53:12.553Z,52301.60
2022-11-24T09:55:45.657Z,52314.87
2022-11-24T09:58:22.529Z,52302.41
2022-11-24T10:00:54.262Z,52316.07
2022-11-24T10:03:26.517Z,52308.04
2022-11-24T10:05:57.985Z,52306.43
2022-11-24T10:08:59.151Z,52302.41
2022-11-24T10:11:33.326Z,52298.79
2022-11-24T10:27:15.483Z,52297.18
2022-11-24T10:29:46.919Z,52297.19
2022-11-24T10:32:21.546Z,52299.20
2022-11-24T10:34:53.033Z,52280.31
2022-11-24T10:37:27.825Z,52295.98
2022-11-24T10:40:02.685Z,52313.26
2022-11-24T10:42:36.961Z,52299.20
2022-11-24T10:45:13.244Z,52299.60
2022-11-24T10:47:45.569Z,52292.37
2022-11-24T10:50:20.008Z,52283.12
2022-11-24T10:52:56.949Z,52285.94
2022-11-24T10:55:28.263Z,52282.72
2022-11-24T10:57:59.560Z,52301.61
2022-11-24T11:00:36.128Z,52297.59
2022-11-24T11:03:22.016Z,52279.51
2022-11-24T11:05:54.986Z,52296.78
2022-11-24T11:08:29.125Z,52285.53
2022-11-24T11:11:23.975Z,52294.37
2022-11-24T11:14:03.012Z,52285.53
2022-11-24T11:16:38.374Z,52289.95
2022-11-24T11:19:53.153Z,52308.04
2022-11-24T11:22:28.733Z,52304.42
2022-11-24T11:25:20.152Z,52283.93
2022-11-24T11:27:51.704Z,52293.97
2022-11-24T11:36:16.847Z,52304.82
2022-11-24T11:38:50.407Z,52295.18
2022-11-24T11:41:23.694Z,52307.64
2022-11-24T11:43:58.729Z,52313.66
2022-11-24T11:46:30.481Z,52324.11
2022-11-24T11:49:00.397Z,52315.27
2022-11-24T11:54:36.730Z,52318.89
2022-11-24T11:57:12.226Z,52303.21
2022-11-24T11:59:51.196Z,52309.24
2022-11-24T12:02:58.650Z,52321.30
2022-11-24T12:05:35.876Z,52314.06
2022-11-24T12:08:20.713Z,52317.68
2022-11-24T12:10:58.202Z,52317.28
2022-11-24T12:13:48.773Z,52312.86
2022-11-24T12:16:30.036Z,52318.09
2022-11-24T12:19:09.014Z,52304.02
2022-11-24T12:21:43.366Z,52306.43
2022-11-24T12:24:19.592Z,52305.63
2022-11-24T12:26:52.713Z,52298.39
2022-11-24T12:29:40.862Z,52320.09
2022-11-24T12:32:22.125Z,52319.70
2022-11-24T12:34:55.106Z,52320.09
2022-11-24T12:37:41.835Z,52326.52
2022-11-24T12:40:17.363Z,52320.50
2022-11-24T12:43:00.729Z,52319.69
2022-11-24T12:45:35.957Z,52321.30
2022-11-24T12:48:19.899Z,52311.25
2022-11-24T12:50:51.380Z,52321.30
2022-11-24T12:53:24.953Z,52323.71
2022-11-24T12:55:56.522Z,52307.63
2022-11-24T12:58:31.493Z,52310.85
2022-11-24T13:01:15.895Z,52319.70
2022-11-24T13:03:54.865Z,52310.45
2022-11-24T13:06:29.368Z,52327.33
2022-11-24T13:09:00.939Z,52330.14
2022-11-24T13:11:42.690Z,52315.68
2022-11-24T13:14:19.119Z,52321.70
2022-11-24T13:17:29.582Z,52310.85
2022-11-24T13:19:49.964Z,52318.49
2022-11-24T13:22:25.653Z,52320.09
2022-11-24T13:25:17.793Z,52306.03
2022-11-24T13:27:48.500Z,52319.29
2022-11-24T13:30:52.503Z,52330.14
2022-11-24T13:33:46.744Z,52325.32
2022-11-24T13:36:32.421Z,52308.04
2022-11-24T13:39:04.487Z,52329.34
2022-11-24T13:42:41.553Z,52320.09
2022-11-24T13:45:03.215Z,52320.50
2022-11-24T13:47:54.919Z,52323.71
2022-11-24T13:50:49.864Z,52329.74
2022-11-24T13:53:26.710Z,52323.71
2022-11-24T13:56:00.342Z,52321.30
2022-11-24T13:58:37.516Z,52324.91
2022-11-24T14:01:16.873Z,52314.87
2022-11-24T14:04:27.944Z,52330.14
2022-11-24T14:06:45.276Z,52314.07
2022-11-24T14:09:24.350Z,52319.69
2022-11-24T14:12:09.676Z,52320.09
2022-11-24T14:14:41.414Z,52332.95
2022-11-24T14:17:21.689Z,52335.37
2022-11-24T14:19:54.039Z,52325.72
2022-11-24T14:22:27.837Z,52316.48
2022-11-24T14:25:00.083Z,52313.26
2022-11-24T14:27:33.056Z,52317.68
2022-11-24T14:30:06.126Z,52311.25
2022-11-24T14:32:38.265Z,52326.12
2022-11-24T14:35:23.692Z,52330.95
2022-11-24T14:37:55.487Z,52322.51
2022-11-24T14:40:41.532Z,52323.71
2022-11-24T14:43:22.378Z,52322.50
2022-11-24T14:45:59.411Z,52315.27
2022-11-24T14:48:31.962Z,52332.15
2022-11-24T14:51:14.529Z,52314.47
2022-11-24T14:53:46.439Z,52318.49
2022-11-24T14:56:28.483Z,52323.30
2022-11-24T14:59:02.383Z,52311.65
2022-11-24T15:01:35.324Z,52314.06
2022-11-24T15:04:38.753Z,52320.09
2022-11-24T15:07:17.647Z,52322.10
2022-11-24T15:09:54.106Z,52319.29
2022-11-24T15:12:31.163Z,52334.96
2022-11-24T15:15:03.827Z,52339.38
2022-11-24T15:17:35.298Z,52328.13
2022-11-24T15:20:11.586Z,52319.29
2022-11-24T15:22:43.898Z,52328.53
2022-11-24T15:25:38.168Z,52325.32
2022-11-24T15:28:10.769Z,52327.33
2022-11-24T15:30:42.273Z,52318.09
2022-11-24T15:33:18.073Z,52321.70
2022-11-24T15:35:49.550Z,52321.70
2022-11-24T15:38:21.030Z,52323.71
2022-11-24T15:40:54.144Z,52315.67
2022-11-24T15:43:31.328Z,52305.62
2022-11-24T15:46:03.547Z,52313.66
2022-11-24T15:48:35.239Z,52314.06
2022-11-24T15:51:05.384Z,52316.48
2022-11-24T15:53:37.844Z,52319.29
2022-11-24T15:56:13.782Z,52325.32
2022-11-24T15:58:45.089Z,52312.46
2022-11-24T16:01:16.743Z,52300.40
2022-11-24T16:03:49.313Z,52297.59
2022-11-24T16:06:25.061Z,52316.88
2022-11-24T16:08:58.365Z,52287.14
2022-11-24T16:11:30.432Z,52289.95
2022-11-24T16:14:02.114Z,52287.14
2022-11-24T16:16:34.449Z,52300.80
2022-11-24T16:19:06.009Z,52321.30
2022-11-24T16:21:37.997Z,52301.61
2022-11-24T16:24:10.442Z,52296.39
2022-11-24T16:26:42.461Z,52300.80
2022-11-24T16:29:12.435Z,52307.23
2022-11-24T16:31:46.755Z,52303.62
2022-11-24T16:34:18.451Z,52306.03
2022-11-24T16:36:50.061Z,52292.37
2022-11-24T16:39:21.698Z,52290.36
2022-11-24T16:41:53.454Z,52288.75
2022-11-24T16:44:24.933Z,52305.63
2022-11-24T16:46:57.324Z,52301.21
2022-11-24T16:49:28.817Z,52289.15
2022-11-24T16:52:00.751Z,52287.95
2022-11-24T16:54:33.494Z,52307.63
2022-11-24T16:57:10.312Z,52294.77
2022-11-24T16:59:47.458Z,52303.21
2022-11-24T17:02:19.642Z,52295.58
2022-11-24T17:04:52.737Z,52285.93
2022-11-24T17:07:24.483Z,52307.64
2022-11-24T17:09:56.152Z,52296.79
2022-11-24T17:12:28.077Z,52304.42
2022-11-24T17:15:30.609Z,52309.24
2022-11-24T17:18:22.290Z,52298.79
2022-11-24T17:20:43.271Z,52300.40
2022-11-24T17:23:15.963Z,52293.17
2022-11-24T17:25:48.511Z,52292.36
2022-11-24T17:28:20.174Z,52301.21
2022-11-24T17:30:49.866Z,52285.94
2022-11-24T17:33:21.351Z,52280.71
2022-11-24T17:35:52.886Z,52308.04
2022-11-24T17:38:24.741Z,52304.42
2022-11-24T17:40:56.383Z,52300.00
2022-11-24T17:43:28.683Z,52293.16
2022-11-24T17:46:01.613Z,52281.91
2022-11-24T17:48:34.260Z,52304.82
2022-11-24T17:51:08.071Z,52317.28
2022-11-24T17:53:39.811Z,52293.57
2022-11-24T17:56:10.406Z,52305.23
2022-11-24T17:58:43.304Z,52302.01
2022-11-24T18:01:16.250Z,52308.44
2022-11-24T18:03:53.199Z,52303.62
2022-11-24T18:06:26.250Z,52293.17
2022-11-24T18:08:58.818Z,52309.64
2022-11-24T18:11:32.200Z,52304.02
2022-11-24T18:14:04.294Z,52284.73
2022-11-24T18:16:36.037Z,52308.04
2022-11-24T18:19:10.894Z,52297.59
2022-11-24T18:21:44.052Z,52314.07
2022-11-24T18:24:18.560Z,52306.02
2022-11-24T18:26:54.254Z,52316.07
2022-11-24T18:29:25.807Z,52308.45
2022-11-24T18:31:57.357Z,52321.30
2022-11-24T18:34:29.010Z,52293.17
2022-11-24T18:37:00.596Z,52306.43
2022-11-24T18:39:31.951Z,52308.04
2022-11-24T18:42:03.508Z,52314.87
2022-11-24T18:44:35.219Z,52299.60
2022-11-24T18:47:07.674Z,52318.08
2022-11-24T18:49:39.233Z,52314.47
2022-11-24T18:52:10.766Z,52316.07
2022-11-24T18:54:42.187Z,52324.91
2022-11-24T18:57:13.605Z,52313.26
2022-11-24T18:59:45.007Z,52314.07
2022-11-24T19:02:16.897Z,52304.02
2022-11-24T19:04:48.329Z,52319.29
2022-11-24T19:07:20.737Z,52317.68
2022-11-24T19:09:52.316Z,52322.91
2022-11-24T19:12:23.674Z,52307.23
2022-11-24T19:14:55.429Z,52314.07
2022-11-24T19:17:27.322Z,52306.84
2022-11-24T19:19:57.193Z,52319.69
2022-11-24T19:22:28.637Z,52333.76
2022-11-24T19:25:00.227Z,52317.68
2022-11-24T19:27:33.523Z,52332.96
2022-11-24T19:30:05.348Z,52315.68
2022-11-24T19:32:36.829Z,52326.93
2022-11-24T19:35:09.860Z,52317.68
2022-11-24T19:37:41.474Z,52318.09
2022-11-24T19:40:15.180Z,52332.55
2022-11-24T19:42:46.584Z,52324.11
2022-11-24T19:45:18.547Z,52312.86
2022-11-24T19:47:48.729Z,52334.56
2022-11-24T19:50:20.130Z,52335.37
2022-11-24T19:52:51.615Z,52329.34
2022-11-24T19:55:23.003Z,52321.70
2022-11-24T19:57:54.700Z,52328.93
2022-11-24T20:00:26.907Z,52330.14
2022-11-24T20:03:02.411Z,52326.52
2022-11-24T20:05:32.166Z,52291.96
2022-11-24T20:08:03.523Z,52332.15
2022-11-24T20:10:34.856Z,52336.97
2022-11-24T20:13:06.652Z,52332.95
2022-11-24T20:15:38.091Z,52328.13
2022-11-24T20:18:08.356Z,52333.35
2022-11-24T20:20:39.872Z,52320.90
2022-11-24T20:23:11.357Z,52330.14
2022-11-24T20:25:43.076Z,52311.65
2022-11-24T20:28:14.705Z,52324.52
2022-11-24T20:30:46.490Z,52334.16
2022-11-24T20:33:17.976Z,52332.55
2022-11-24T20:35:49.540Z,52339.38
2022-11-24T20:38:19.628Z,52330.95
2022-11-24T20:40:50.904Z,52336.17
2022-11-24T20:43:22.747Z,52333.76
2022-11-24T20:45:54.216Z,52351.04
2022-11-24T20:48:25.903Z,52340.99
2022-11-24T20:50:57.362Z,52335.36
2022-11-24T20:53:29.041Z,52338.18
2022-11-24T20:56:06.332Z,52341.40
2022-11-24T20:58:38.372Z,52332.96
2022-11-24T21:01:10.903Z,52334.96
2022-11-24T21:03:43.526Z,52330.14
2022-11-24T21:06:15.395Z,52336.57
2022-11-24T21:08:46.792Z,52329.74
2022-11-24T21:11:18.678Z,52336.97
2022-11-24T21:13:50.233Z,52332.55
2022-11-24T21:16:22.794Z,52335.76
2022-11-24T21:18:58.174Z,52324.91
2022-11-24T21:21:34.231Z,52345.41
2022-11-24T21:24:06.128Z,52338.58
2022-11-24T21:26:38.980Z,52335.36
2022-11-24T21:29:10.452Z,52341.39
2022-11-24T21:31:41.840Z,52336.57
2022-11-24T21:34:15.033Z,52345.41
2022-11-24T21:36:46.498Z,52350.23
2022-11-24T21:39:18.855Z,52345.01
2022-11-24T21:41:50.705Z,52343.40
2022-11-24T21:44:20.476Z,52348.23
2022-11-24T21:46:55.956Z,52349.02
2022-11-24T21:49:27.765Z,52345.01
2022-11-24T21:51:59.578Z,52340.19
2022-11-24T21:54:29.353Z,52347.42
2022-11-24T21:57:00.797Z,52360.28
2022-11-24T21:59:32.393Z,52337.38
2022-11-24T22:02:06.689Z,52340.99
2022-11-24T22:04:40.727Z,52350.64
2022-11-24T22:07:12.230Z,52357.07
2022-11-24T22:09:43.544Z,52334.16
2022-11-24T22:12:14.990Z,52349.02
2022-11-24T22:14:46.488Z,52353.45
2022-11-24T22:17:17.915Z,52366.31
2022-11-24T22:19:49.336Z,52372.34
2022-11-24T22:22:20.802Z,52355.46
2022-11-24T22:24:52.231Z,52372.34
2022-11-24T22:27:23.817Z,52367.52
2022-11-24T22:29:54.326Z,52361.49
2022-11-24T22:32:25.944Z,52362.29
2022-11-24T22:34:57.419Z,52356.26
2022-11-24T22:37:28.816Z,52366.31
2022-11-24T22:40:00.195Z,52373.14
2022-11-24T22:42:31.644Z,52356.66
2022-11-24T22:45:03.156Z,52362.69
2022-11-24T22:47:34.472Z,52357.87
2022-11-24T22:50:07.244Z,52365.91
2022-11-24T22:52:40.971Z,52359.48
2022-11-24T22:55:12.770Z,52361.09
2022-11-24T22:57:48.067Z,52361.89
2022-11-24T23:00:21.259Z,52356.26
2022-11-24T23:02:54.816Z,52367.51
2022-11-24T23:05:26.762Z,52373.94
2022-11-24T23:07:58.297Z,52367.11
2022-11-24T23:10:29.914Z,52363.90
2022-11-24T23:13:01.476Z,52375.15
2022-11-24T23:15:32.995Z,52355.05
2022-11-24T23:18:04.466Z,52353.85
2022-11-24T23:20:37.303Z,52371.93
2022-11-24T23:23:08.953Z,52364.30
2022-11-24T23:25:39.003Z,52354.25
2022-11-24T23:28:10.559Z,52365.10
2022-11-24T23:30:42.462Z,52371.93
2022-11-24T23:33:13.838Z,52365.10
2022-11-24T23:35:45.381Z,52352.64
2022-11-24T23:38:16.776Z,52356.66
2022-11-24T23:40:48.621Z,52372.34
2022-11-24T23:43:19.962Z,52365.10
2022-11-24T23:45:51.717Z,52358.67
2022-11-24T23:48:23.248Z,52365.10
2022-11-24T23:50:53.196Z,52356.26
2022-11-24T23:53:24.666Z,52355.05
2022-11-24T23:55:59.338Z,52357.07
2022-11-24T23:58:30.714Z,52360.68
